Time;durP1;ratioP1;P1;durP2;ratioP2;P2;SDS_P1;SDS_P2;PMS_P1;PMS_P2;Temp;Humidity;BMP_temperature;BMP_pressure;BME280_temperature;BME280_humidity;BME280_pressure;Samples;Min_cycle;Max_cycle;Signal;HPM_P1;HPM_P2
2023/05/10 00:00:52;;;;;;;18.65;9.13;;;15.20;98.90;;;;;;5134133;28;20019;-76
2023/05/10 00:03:18;;;;;;;17.60;8.85;;;15.20;98.90;;;;;;5133982;28;20042;-76
2023/05/10 00:05:43;;;;;;;18.25;9.25;;;15.20;98.90;;;;;;5133925;28;20048;-76
2023/05/10 00:08:09;;;;;;;18.30;9.05;;;15.20;98.80;;;;;;5116024;28;20027;-76
2023/05/10 00:10:36;;;;;;;17.40;8.50;;;15.20;98.90;;;;;;5133109;28;20047;-76
2023/05/10 00:13:01;;;;;;;16.40;8.43;;;15.10;98.90;;;;;;5133030;28;20076;-76
2023/05/10 00:15:27;;;;;;;16.35;8.63;;;15.20;99.00;;;;;;5133966;28;20019;-76
2023/05/10 00:17:52;;;;;;;17.92;8.88;;;15.20;98.90;;;;;;5133913;28;20039;-76
2023/05/10 00:20:18;;;;;;;19.00;9.02;;;15.20;98.90;;;;;;5132954;28;20038;-76
2023/05/10 00:22:44;;;;;;;21.85;9.52;;;15.10;98.90;;;;;;5132870;28;20050;-76
2023/05/10 00:25:10;;;;;;;17.50;8.73;;;15.10;99.30;;;;;;5115861;28;20083;-76
2023/05/10 00:27:36;;;;;;;16.00;7.97;;;15.10;99.00;;;;;;5132895;28;20027;-76
2023/05/10 00:30:01;;;;;;;16.65;8.90;;;15.00;99.20;;;;;;5133764;28;20031;-76
2023/05/10 00:32:27;;;;;;;17.80;8.57;;;15.00;99.20;;;;;;5133800;28;20032;-76
2023/05/10 00:34:52;;;;;;;17.50;9.25;;;15.00;99.20;;;;;;5115627;28;20024;-76
2023/05/10 00:37:18;;;;;;;16.67;8.90;;;15.00;99.30;;;;;;5132879;28;20039;-76
2023/05/10 00:39:43;;;;;;;18.00;9.50;;;15.00;99.30;;;;;;5132654;28;20019;-76
2023/05/10 00:42:09;;;;;;;17.45;9.25;;;15.10;99.40;;;;;;5098746;28;20036;-76
2023/05/10 00:44:35;;;;;;;20.23;9.15;;;15.10;99.30;;;;;;5132640;28;20031;-76
2023/05/10 00:47:00;;;;;;;17.63;8.93;;;15.10;99.30;;;;;;5132685;28;20020;-76
2023/05/10 00:49:26;;;;;;;18.90;9.18;;;15.00;99.40;;;;;;5115621;28;20024;-76
2023/05/10 00:51:52;;;;;;;19.02;9.70;;;15.00;99.40;;;;;;5133587;28;20028;-75
2023/05/10 00:54:18;;;;;;;20.27;9.43;;;15.00;99.40;;;;;;5115475;28;20030;-76
2023/05/10 00:56:48;;;;;;;20.10;9.57;;;14.90;99.70;;;;;;5133525;28;20035;-75
2023/05/10 00:59:17;;;;;;;22.33;10.27;;;14.90;99.70;;;;;;5116229;28;20024;-75
2023/05/10 01:01:45;;;;;;;22.13;10.07;;;14.90;99.60;;;;;;5117923;28;20053;-76
2023/05/10 01:04:12;;;;;;;21.60;9.27;;;14.90;99.60;;;;;;5136290;28;20019;-76
2023/05/10 01:06:39;;;;;;;20.70;9.48;;;15.00;99.50;;;;;;5136186;28;20078;-76
2023/05/10 01:09:06;;;;;;;20.85;9.77;;;15.00;99.50;;;;;;5119239;28;20049;-75
2023/05/10 01:11:33;;;;;;;21.55;10.40;;;15.00;99.50;;;;;;5137245;28;20015;-75
2023/05/10 01:13:59;;;;;;;18.58;9.63;;;15.00;99.40;;;;;;5136305;28;20032;-76
2023/05/10 01:16:26;;;;;;;17.80;9.30;;;14.90;99.40;;;;;;5137168;28;20039;-76
2023/05/10 01:18:52;;;;;;;19.77;9.07;;;15.00;99.40;;;;;;5137106;28;20020;-76
2023/05/10 01:21:27;;;;;;;22.38;10.55;;;15.00;99.40;;;;;;5136101;28;20027;-76
2023/05/10 01:24:18;;;;;;;21.48;9.52;;;14.90;99.40;;;;;;5135990;28;20032;-76
2023/05/10 01:27:17;;;;;;;19.80;9.82;;;14.90;99.40;;;;;;5137160;28;20027;-76
2023/05/10 01:29:54;;;;;;;20.67;9.68;;;14.90;99.40;;;;;;5135934;28;20028;-76
2023/05/10 01:32:43;;;;;;;23.23;10.15;;;14.80;99.40;;;;;;5136940;28;20041;-76
2023/05/10 01:35:32;;;;;;;20.27;9.65;;;14.80;99.40;;;;;;5125884;27;20040;-75
2023/05/10 01:38:04;;;;;;;21.13;9.95;;;14.80;99.50;;;;;;5136805;28;20020;-75
2023/05/10 01:40:37;;;;;;;22.63;10.77;;;14.80;99.50;;;;;;5136720;28;20023;-75
2023/05/10 01:43:07;;;;;;;22.83;10.40;;;14.80;99.50;;;;;;5136654;27;20030;-75
2023/05/10 01:45:52;;;;;;;27.67;11.40;;;14.90;99.50;;;;;;5135777;28;20022;-75
2023/05/10 01:48:19;;;;;;;24.05;10.85;;;14.90;99.40;;;;;;5135560;28;20037;-76
2023/05/10 01:50:47;;;;;;;26.92;11.27;;;14.80;99.50;;;;;;5136528;28;20047;-75
2023/05/10 01:53:18;;;;;;;24.08;10.48;;;14.90;99.50;;;;;;5135485;28;20022;-75
2023/05/10 01:55:50;;;;;;;27.38;11.98;;;14.80;99.50;;;;;;5136516;28;20028;-75
2023/05/10 01:58:23;;;;;;;23.95;11.85;;;14.90;99.50;;;;;;5136398;28;20036;-75
2023/05/10 02:00:50;;;;;;;27.00;12.35;;;14.90;99.40;;;;;;5135520;28;20046;-75
2023/05/10 02:03:18;;;;;;;25.35;11.45;;;14.90;99.40;;;;;;5135273;28;20034;-75
2023/05/10 02:05:48;;;;;;;24.30;12.55;;;14.80;99.40;;;;;;5136095;28;20047;-75
2023/05/10 02:08:16;;;;;;;31.63;14.18;;;14.80;99.40;;;;;;5135158;28;20106;-76
2023/05/10 02:10:44;;;;;;;29.58;13.82;;;14.80;99.40;;;;;;5136122;28;20023;-75
2023/05/10 02:13:11;;;;;;;30.17;13.70;;;14.80;99.40;;;;;;5134650;28;20087;-75
2023/05/10 02:15:38;;;;;;;27.17;12.90;;;14.90;99.40;;;;;;5136074;28;20028;-76
2023/05/10 02:18:06;;;;;;;31.23;14.13;;;14.90;99.40;;;;;;5135998;28;20023;-76
2023/05/10 02:20:33;;;;;;;30.08;13.50;;;14.80;99.30;;;;;;5135953;28;20024;-76
2023/05/10 02:22:59;;;;;;;29.67;14.30;;;14.80;99.30;;;;;;5118002;28;20039;-75
2023/05/10 02:25:25;;;;;;;28.95;13.13;;;14.80;99.30;;;;;;5135873;28;20028;-75
2023/05/10 02:27:55;;;;;;;30.70;14.15;;;14.80;99.40;;;;;;5134920;28;20028;-75
2023/05/10 02:30:23;;;;;;;38.53;15.80;;;14.80;99.40;;;;;;5134723;28;20080;-75
2023/05/10 02:32:50;;;;;;;41.58;16.45;;;14.70;99.40;;;;;;5134843;28;20031;-75
2023/05/10 02:35:16;;;;;;;39.10;14.80;;;14.60;99.60;;;;;;5135594;28;20027;-75
2023/05/10 02:37:43;;;;;;;40.42;16.08;;;14.60;99.70;;;;;;5135629;28;20023;-75
2023/05/10 02:40:11;;;;;;;40.03;16.40;;;14.60;99.70;;;;;;5135666;28;20023;-75
2023/05/10 02:42:41;;;;;;;39.08;16.75;;;14.60;99.80;;;;;;5135449;28;20024;-75
2023/05/10 02:45:11;;;;;;;38.90;16.23;;;14.70;99.90;;;;;;5134509;28;20026;-75
2023/05/10 02:47:37;;;;;;;45.85;17.05;;;14.70;99.90;;;;;;5134395;28;20011;-75
2023/05/10 02:50:03;;;;;;;46.60;16.67;;;14.70;99.80;;;;;;5117464;28;20069;-75
2023/05/10 02:52:38;;;;;;;45.38;17.45;;;14.70;99.80;;;;;;5117478;28;20032;-76
2023/05/10 02:55:05;;;;;;;42.00;17.80;;;14.70;99.80;;;;;;5135323;28;20088;-75
2023/05/10 02:57:37;;;;;;;46.80;17.52;;;14.70;99.80;;;;;;5117436;28;20030;-76
2023/05/10 03:00:03;;;;;;;45.85;17.85;;;14.70;99.80;;;;;;5135212;28;20079;-75
2023/05/10 03:02:30;;;;;;;46.42;18.38;;;14.80;99.80;;;;;;5135078;27;20445;-75
2023/05/10 03:04:56;;;;;;;47.35;18.42;;;14.80;99.80;;;;;;5117013;28;20046;-75
2023/05/10 03:13:14;;;;;;;51.25;17.55;;;14.70;99.70;;;;;;5133991;28;20032;-75
2023/05/10 03:16:00;;;;;;;48.55;16.95;;;14.70;99.70;;;;;;5133927;28;20024;-76
2023/05/10 03:18:46;;;;;;;46.15;18.13;;;14.80;99.80;;;;;;5134882;28;20016;-76
2023/05/10 03:21:13;;;;;;;48.60;17.60;;;14.80;99.80;;;;;;5133728;28;20098;-75
2023/05/10 03:23:44;;;;;;;52.28;19.58;;;14.80;99.70;;;;;;5133015;28;20032;-76
2023/05/10 03:26:13;;;;;;;47.63;17.40;;;14.80;99.70;;;;;;5134629;28;20024;-75
2023/05/10 03:28:39;;;;;;;41.45;17.10;;;14.90;99.70;;;;;;5134687;28;20023;-75
2023/05/10 03:31:06;;;;;;;47.50;19.00;;;14.90;99.80;;;;;;5133703;28;20050;-76
2023/05/10 03:33:32;;;;;;;43.97;17.48;;;14.90;99.70;;;;;;5133377;28;20027;-76
2023/05/10 03:35:57;;;;;;;48.30;18.67;;;14.90;99.70;;;;;;5116652;28;20045;-75
2023/05/10 03:38:23;;;;;;;52.28;18.83;;;14.90;99.70;;;;;;5134467;28;20055;-75
2023/05/10 03:40:49;;;;;;;48.20;18.95;;;14.90;99.70;;;;;;5133343;28;20039;-75
2023/05/10 03:43:14;;;;;;;49.33;18.60;;;14.90;99.70;;;;;;5133314;28;20028;-75
2023/05/10 03:45:40;;;;;;;43.55;18.52;;;14.90;99.60;;;;;;5134344;28;20023;-76
2023/05/10 03:48:06;;;;;;;49.85;19.17;;;14.90;99.60;;;;;;5133578;28;20031;-75
2023/05/10 03:50:31;;;;;;;46.40;18.48;;;14.90;99.60;;;;;;5133398;28;20020;-75
2023/05/10 03:52:57;;;;;;;45.47;19.08;;;14.90;99.60;;;;;;5133294;28;20032;-75
2023/05/10 03:55:23;;;;;;;49.88;19.05;;;14.90;99.60;;;;;;5133166;28;20031;-75
2023/05/10 03:57:49;;;;;;;49.95;19.27;;;14.90;99.60;;;;;;5133155;28;20058;-75
2023/05/10 04:00:15;;;;;;;45.92;19.00;;;14.90;99.50;;;;;;5133266;28;20101;-75
2023/05/10 04:02:41;;;;;;;53.47;20.30;;;14.90;99.50;;;;;;5134138;28;20031;-75
2023/05/10 04:05:07;;;;;;;54.20;19.25;;;14.90;99.50;;;;;;5133908;28;20043;-75
2023/05/10 04:07:32;;;;;;;49.13;19.40;;;14.90;99.50;;;;;;5116031;28;20020;-75
2023/05/10 04:09:58;;;;;;;46.70;20.02;;;14.90;99.40;;;;;;5115966;28;20095;-75
2023/05/10 04:12:24;;;;;;;50.90;19.27;;;14.90;99.50;;;;;;5133056;28;20063;-76
2023/05/10 04:14:49;;;;;;;49.17;19.05;;;14.90;99.50;;;;;;5115884;28;20031;-75
2023/05/10 04:17:15;;;;;;;48.33;18.90;;;14.90;99.90;;;;;;5133938;28;20039;-76
2023/05/10 04:19:40;;;;;;;43.72;18.52;;;14.90;99.60;;;;;;5132882;28;20036;-76
2023/05/10 04:22:06;;;;;;;46.22;19.92;;;15.00;99.60;;;;;;5115801;28;20053;-76
2023/05/10 04:24:32;;;;;;;51.55;20.88;;;15.00;99.60;;;;;;5132888;28;20024;-76
2023/05/10 04:26:57;;;;;;;49.72;20.23;;;15.00;99.50;;;;;;5132806;28;20023;-76
2023/05/10 04:29:23;;;;;;;47.60;20.17;;;15.00;99.40;;;;;;5115890;28;20031;-76
2023/05/10 04:31:49;;;;;;;51.78;20.67;;;15.00;99.40;;;;;;5133769;28;20032;-75
2023/05/10 04:34:14;;;;;;;50.35;21.30;;;15.00;99.40;;;;;;5132743;28;20039;-76
2023/05/10 04:36:40;;;;;;;49.78;20.85;;;15.00;99.40;;;;;;5136200;28;20087;-76
2023/05/10 04:39:05;;;;;;;48.00;19.17;;;15.00;99.40;;;;;;5119842;28;20028;-76
2023/05/10 04:41:31;;;;;;;50.28;20.45;;;15.00;99.40;;;;;;5136993;28;20034;-76
2023/05/10 04:43:57;;;;;;;46.22;19.13;;;15.00;99.40;;;;;;5137757;28;20035;-76
2023/05/10 04:46:22;;;;;;;42.40;20.02;;;15.00;99.40;;;;;;5137771;28;20042;-75
2023/05/10 04:48:48;;;;;;;46.40;19.20;;;15.00;99.40;;;;;;5136808;28;20046;-76
2023/05/10 04:51:13;;;;;;;45.35;18.15;;;15.00;99.40;;;;;;5136958;28;20035;-75
2023/05/10 04:53:39;;;;;;;44.50;17.75;;;15.00;99.40;;;;;;5137637;28;20043;-76
2023/05/10 04:56:05;;;;;;;46.42;18.77;;;15.00;99.30;;;;;;5119552;28;20034;-76
2023/05/10 04:58:31;;;;;;;44.45;18.50;;;15.00;99.20;;;;;;5136713;28;20041;-75
2023/05/10 05:00:56;;;;;;;41.67;18.15;;;15.00;99.20;;;;;;5136555;28;20032;-76
2023/05/10 05:03:22;;;;;;;41.08;18.25;;;15.00;99.20;;;;;;5136514;28;20049;-76
2023/05/10 05:05:48;;;;;;;44.65;17.95;;;15.00;99.30;;;;;;5137270;28;20052;-76
2023/05/10 05:08:14;;;;;;;40.55;17.55;;;15.00;99.30;;;;;;5137414;28;20024;-76
2023/05/10 05:10:39;;;;;;;45.17;17.80;;;15.00;99.30;;;;;;5137329;28;20028;-76
2023/05/10 05:13:05;;;;;;;43.28;17.50;;;15.00;99.30;;;;;;5137295;28;20019;-76
2023/05/10 05:15:31;;;;;;;44.38;17.88;;;15.00;99.20;;;;;;5136190;28;20023;-76
2023/05/10 05:17:57;;;;;;;37.28;16.20;;;15.00;99.20;;;;;;5136239;28;20032;-75
2023/05/10 05:20:22;;;;;;;43.42;17.20;;;15.10;99.10;;;;;;5137123;28;20087;-76
2023/05/10 05:22:48;;;;;;;42.58;16.35;;;15.10;99.00;;;;;;5137017;28;20027;-76
2023/05/10 05:25:15;;;;;;;40.45;16.52;;;15.00;99.00;;;;;;5135998;28;20020;-76
2023/05/10 05:27:41;;;;;;;38.35;16.05;;;15.00;99.00;;;;;;5136041;28;20079;-75
2023/05/10 05:30:07;;;;;;;36.58;15.75;;;14.90;98.90;;;;;;5136829;27;20023;-76
2023/05/10 05:32:32;;;;;;;39.13;16.05;;;14.90;98.90;;;;;;5136922;28;20049;-77
2023/05/10 05:34:58;;;;;;;36.03;15.43;;;14.90;99.00;;;;;;5136838;28;20470;-77
2023/05/10 05:37:24;;;;;;;37.50;15.15;;;14.90;99.00;;;;;;5135836;28;20020;-76
2023/05/10 05:39:49;;;;;;;35.67;15.20;;;14.80;98.90;;;;;;5135875;28;20432;-76
2023/05/10 05:42:17;;;;;;;34.05;14.93;;;14.80;98.80;;;;;;5135654;28;20063;-76
2023/05/10 05:44:43;;;;;;;34.72;14.52;;;14.70;98.80;;;;;;5118890;28;20034;-76
2023/05/10 05:47:09;;;;;;;34.75;14.18;;;14.70;98.90;;;;;;5135769;28;20134;-76
2023/05/10 05:49:34;;;;;;;37.83;15.70;;;14.70;99.00;;;;;;5118596;28;20024;-76
2023/05/10 05:52:01;;;;;;;39.33;15.30;;;14.70;99.00;;;;;;5136542;28;20024;-76
2023/05/10 05:54:27;;;;;;;39.30;15.85;;;14.70;99.00;;;;;;5118423;28;20027;-76
2023/05/10 05:57:00;;;;;;;35.15;15.30;;;14.60;98.90;;;;;;5118561;28;20031;-75
2023/05/10 05:59:27;;;;;;;34.25;13.77;;;14.50;98.80;;;;;;5135333;28;20031;-75
2023/05/10 06:01:52;;;;;;;33.90;14.00;;;14.50;98.80;;;;;;5135335;28;20011;-75
2023/05/10 06:04:18;;;;;;;41.92;16.02;;;14.40;98.90;;;;;;5118195;28;20055;-75
2023/05/10 06:06:44;;;;;;;37.33;14.70;;;14.40;99.00;;;;;;5135106;28;20051;-75
2023/05/10 06:09:10;;;;;;;36.75;14.48;;;14.40;99.00;;;;;;5135204;28;20039;-75
2023/05/10 06:11:36;;;;;;;36.40;13.13;;;14.40;99.40;;;;;;5136179;28;20020;-76
2023/05/10 06:14:04;;;;;;;35.67;15.18;;;14.50;99.10;;;;;;5136128;28;20031;-76
2023/05/10 06:16:30;;;;;;;38.58;15.27;;;14.50;99.10;;;;;;5136033;28;20024;-76
2023/05/10 06:18:55;;;;;;;33.50;13.60;;;14.60;99.10;;;;;;5136029;28;20023;-75
2023/05/10 06:21:21;;;;;;;35.35;14.20;;;14.60;99.00;;;;;;5135895;28;20032;-76
2023/05/10 06:23:46;;;;;;;42.13;16.25;;;14.50;98.90;;;;;;5117854;28;20035;-75
2023/05/10 06:26:13;;;;;;;34.75;14.70;;;14.60;99.00;;;;;;5135850;28;20028;-76
2023/05/10 06:28:39;;;;;;;34.90;15.48;;;14.60;98.90;;;;;;5134795;28;20024;-76
2023/05/10 06:31:06;;;;;;;34.40;14.95;;;14.50;99.00;;;;;;5135737;28;20068;-76
2023/05/10 06:33:32;;;;;;;44.05;15.75;;;14.50;99.10;;;;;;5135522;28;20028;-75
2023/05/10 06:35:58;;;;;;;39.00;17.05;;;14.50;99.20;;;;;;5134794;28;20031;-76
2023/05/10 06:38:23;;;;;;;46.17;15.90;;;14.70;99.20;;;;;;5135527;28;20537;-75
2023/05/10 06:40:49;;;;;;;34.13;14.95;;;14.70;99.20;;;;;;5135634;28;20032;-75
2023/05/10 06:43:15;;;;;;;35.30;14.73;;;14.80;99.10;;;;;;5135418;28;20023;-76
2023/05/10 06:45:41;;;;;;;30.23;14.73;;;14.90;99.00;;;;;;5134536;28;20073;-76
2023/05/10 06:48:07;;;;;;;35.90;15.32;;;14.90;99.00;;;;;;5135516;28;20359;-76
2023/05/10 06:50:33;;;;;;;37.22;15.95;;;14.90;98.80;;;;;;5117363;28;20015;-74
2023/05/10 06:52:59;;;;;;;36.42;14.55;;;14.90;98.80;;;;;;5132068;28;20046;-77
2023/05/10 06:55:26;;;;;;;40.53;15.23;;;14.90;98.60;;;;;;5135289;28;20049;-76
2023/05/10 06:57:53;;;;;;;35.75;15.18;;;14.90;98.50;;;;;;5135144;28;20031;-77
2023/05/10 07:00:20;;;;;;;37.88;15.13;;;14.90;98.50;;;;;;5117449;28;20039;-77
2023/05/10 07:02:46;;;;;;;33.80;13.70;;;14.90;98.50;;;;;;5135045;28;20043;-76
2023/05/10 07:05:12;;;;;;;37.80;14.98;;;15.00;98.60;;;;;;5134834;28;20080;-76
2023/05/10 07:07:40;;;;;;;40.10;14.43;;;14.90;98.90;;;;;;5135086;28;20015;-76
2023/05/10 07:10:07;;;;;;;33.08;14.70;;;15.00;98.50;;;;;;5134929;28;20049;-77
2023/05/10 07:12:39;;;;;;;32.63;13.38;;;15.00;98.50;;;;;;5134231;28;20503;-76
2023/05/10 07:15:09;;;;;;;29.40;12.55;;;15.00;98.40;;;;;;5134109;28;20024;-76
2023/05/10 07:17:35;;;;;;;28.58;12.45;;;14.90;98.20;;;;;;5133018;28;20490;-76
2023/05/10 07:20:01;;;;;;;33.10;13.73;;;14.90;98.20;;;;;;5116021;28;20081;-76
2023/05/10 07:22:27;;;;;;;31.38;12.88;;;14.90;98.30;;;;;;5133305;28;20043;-76
2023/05/10 07:24:52;;;;;;;32.10;13.00;;;15.00;98.20;;;;;;5133722;28;20030;-76
2023/05/10 07:27:18;;;;;;;31.30;13.25;;;15.00;98.20;;;;;;5133544;28;20027;-76
2023/05/10 07:29:44;;;;;;;27.50;12.98;;;15.00;98.20;;;;;;5099745;28;20024;-76
2023/05/10 07:32:09;;;;;;;32.20;13.85;;;15.10;98.20;;;;;;5134493;28;20035;-76
2023/05/10 07:34:35;;;;;;;33.50;13.82;;;15.00;98.10;;;;;;5134467;28;20019;-76
2023/05/10 07:37:01;;;;;;;31.27;14.02;;;15.10;98.20;;;;;;5116521;28;20594;-76
2023/05/10 07:39:27;;;;;;;26.98;12.77;;;15.10;98.10;;;;;;5133579;28;20382;-77
2023/05/10 07:41:53;;;;;;;25.73;12.45;;;15.10;98.20;;;;;;5134377;28;20027;-76
2023/05/10 07:44:20;;;;;;;30.55;13.70;;;15.10;98.10;;;;;;5099421;28;20032;-76
2023/05/10 07:46:46;;;;;;;32.70;12.93;;;15.10;98.40;;;;;;5116549;28;20022;-76
2023/05/10 07:49:11;;;;;;;30.75;13.10;;;15.10;97.90;;;;;;5133225;28;20044;-76
2023/05/10 07:51:37;;;;;;;32.30;13.07;;;15.10;97.80;;;;;;5116339;28;20028;-76
2023/05/10 07:54:31;;;;;;;31.20;13.32;;;15.10;97.90;;;;;;5133305;28;20036;-75
2023/05/10 07:56:57;;;;;;;31.98;13.55;;;15.10;97.90;;;;;;5086428;28;20035;-76
2023/05/10 07:59:23;;;;;;;32.40;13.57;;;15.00;97.90;;;;;;5134103;28;20099;-76
2023/05/10 08:01:48;;;;;;;37.10;14.93;;;15.00;98.00;;;;;;5134015;28;20047;-75
2023/05/10 08:04:14;;;;;;;37.50;14.95;;;15.00;98.00;;;;;;5099161;28;20031;-76
2023/05/10 08:06:40;;;;;;;34.38;15.20;;;15.10;98.20;;;;;;5115883;28;20052;-76
2023/05/10 08:09:06;;;;;;;34.33;15.20;;;15.10;98.20;;;;;;5133897;28;20019;-76
2023/05/10 08:11:31;;;;;;;39.03;17.02;;;15.10;98.10;;;;;;5133557;28;20047;-76
2023/05/10 08:14:03;;;;;;;34.35;15.55;;;15.20;98.20;;;;;;5132845;28;20084;-75
2023/05/10 08:16:32;;;;;;;39.92;16.10;;;15.30;98.20;;;;;;5133891;28;20031;-75
2023/05/10 08:18:57;;;;;;;32.92;15.23;;;15.20;97.90;;;;;;5133833;28;20015;-76
2023/05/10 08:21:23;;;;;;;34.67;15.43;;;15.20;98.10;;;;;;5132920;28;20053;-76
2023/05/10 08:24:08;;;;;;;36.38;15.27;;;15.30;98.20;;;;;;5132831;28;20591;-76
2023/05/10 08:26:33;;;;;;;38.22;16.00;;;15.30;98.20;;;;;;5133004;28;20016;-76
2023/05/10 08:28:59;;;;;;;34.45;15.18;;;15.30;98.20;;;;;;5132805;28;20026;-76
2023/05/10 08:31:25;;;;;;;42.65;16.83;;;15.30;98.20;;;;;;5132777;28;20024;-76
2023/05/10 08:33:52;;;;;;;31.17;14.60;;;15.30;98.20;;;;;;5132735;28;20031;-76
2023/05/10 08:36:21;;;;;;;31.45;14.30;;;15.30;98.10;;;;;;5132655;28;20027;-76
2023/05/10 08:38:49;;;;;;;29.02;13.77;;;15.40;98.00;;;;;;5132739;28;20487;-77
2023/05/10 08:41:15;;;;;;;25.58;13.20;;;15.40;98.10;;;;;;5133726;28;20027;-76
2023/05/10 08:43:46;;;;;;;26.58;12.55;;;15.40;97.90;;;;;;5133548;28;20031;-76
2023/05/10 08:46:17;;;;;;;28.90;13.15;;;15.40;97.50;;;;;;5133657;28;20016;-76
2023/05/10 08:48:45;;;;;;;30.48;13.75;;;15.40;97.50;;;;;;5132866;28;20041;-76
2023/05/10 08:51:33;;;;;;;27.98;12.07;;;15.40;97.30;;;;;;5133561;28;20047;-75
2023/05/10 08:53:59;;;;;;;25.88;13.07;;;15.50;97.50;;;;;;5133132;28;20038;-77
2023/05/10 08:56:26;;;;;;;27.05;12.85;;;15.50;97.40;;;;;;5115609;28;20120;-77
2023/05/10 08:58:52;;;;;;;27.70;12.73;;;15.50;97.30;;;;;;5132592;28;20023;-77
2023/05/10 09:01:19;;;;;;;27.63;13.73;;;15.50;97.20;;;;;;5133516;28;20085;-77
2023/05/10 09:03:47;;;;;;;28.10;13.68;;;15.50;97.20;;;;;;5133350;28;20035;-77
2023/05/10 09:06:13;;;;;;;28.60;13.40;;;15.50;97.20;;;;;;5132235;28;20048;-77
2023/05/10 09:08:43;;;;;;;32.20;14.55;;;15.50;97.30;;;;;;5133448;28;20026;-76
2023/05/10 09:15:06;;;;;;;34.88;15.57;;;15.50;97.30;;;;;;5132880;28;20042;-76
2023/05/10 09:17:46;;;;;;;31.05;14.82;;;15.60;97.30;;;;;;5132447;28;20032;-76
2023/05/10 09:20:51;;;;;;;30.17;14.65;;;15.50;97.10;;;;;;5132401;28;20027;-74
2023/05/10 09:23:40;;;;;;;34.03;15.25;;;15.60;97.10;;;;;;5134223;28;20027;-74
2023/05/10 09:26:12;;;;;;;37.03;15.07;;;15.60;97.00;;;;;;5136076;28;20028;-75
2023/05/10 09:28:55;;;;;;;33.75;14.10;;;15.50;96.60;;;;;;5136054;28;20058;-75
2023/05/10 09:31:21;;;;;;;32.40;15.35;;;15.50;96.90;;;;;;5137128;28;20034;-76
2023/05/10 09:33:48;;;;;;;33.08;14.82;;;15.40;97.00;;;;;;5135044;28;20032;-76
2023/05/10 09:36:14;;;;;;;31.98;14.55;;;15.50;97.40;;;;;;5135772;28;20031;-77
2023/05/10 09:38:53;;;;;;;30.33;14.65;;;15.50;97.50;;;;;;5136801;28;20087;-76
2023/05/10 09:41:23;;;;;;;65.65;33.60;;;15.50;97.20;;;;;;5136030;28;20038;-75
2023/05/10 09:43:56;;;;;;;33.53;17.25;;;15.50;97.10;;;;;;5118758;28;20031;-76
2023/05/10 09:46:22;;;;;;;27.60;13.20;;;15.40;96.70;;;;;;5136716;28;20019;-76
2023/05/10 09:48:48;;;;;;;29.83;14.30;;;15.40;96.80;;;;;;5136556;28;20019;-76
2023/05/10 09:51:21;;;;;;;30.15;14.38;;;15.40;96.70;;;;;;5135599;28;20030;-76
2023/05/10 09:54:31;;;;;;;28.30;13.13;;;15.40;96.50;;;;;;5136491;28;20028;-76
2023/05/10 09:56:58;;;;;;;26.98;12.95;;;15.50;96.60;;;;;;5134911;28;20047;-76
2023/05/10 09:59:28;;;;;;;23.40;12.90;;;15.40;96.60;;;;;;5135524;28;20027;-76
2023/05/10 10:01:59;;;;;;;28.20;12.73;;;15.40;96.80;;;;;;5117851;28;20032;-76
2023/05/10 10:04:25;;;;;;;31.52;14.10;;;15.50;96.80;;;;;;5134371;28;20114;-77
2023/05/10 10:07:02;;;;;;;23.90;12.68;;;15.60;97.00;;;;;;5135329;28;20034;-76
2023/05/10 10:09:28;;;;;;;27.60;13.23;;;15.60;97.10;;;;;;5134777;28;20054;-76
2023/05/10 10:11:55;;;;;;;26.13;13.00;;;15.70;97.20;;;;;;5118066;28;20023;-76
2023/05/10 10:14:22;;;;;;;24.85;12.77;;;15.70;96.80;;;;;;5135147;28;20020;-76
2023/05/10 10:16:49;;;;;;;30.15;12.25;;;15.70;96.70;;;;;;5135105;28;20028;-75
2023/05/10 10:19:15;;;;;;;27.58;12.68;;;15.70;96.50;;;;;;5136054;27;20026;-76
2023/05/10 10:21:41;;;;;;;24.58;12.38;;;15.70;96.50;;;;;;5117883;28;20032;-76
2023/05/10 10:24:06;;;;;;;24.30;11.85;;;15.70;96.30;;;;;;5117739;28;20031;-75
2023/05/10 10:26:38;;;;;;;20.60;12.02;;;15.70;96.30;;;;;;5101016;28;20019;-75
2023/05/10 10:29:23;;;;;;;23.48;12.30;;;15.70;96.70;;;;;;5118068;28;20049;-75
2023/05/10 10:32:06;;;;;;;22.13;12.15;;;15.80;96.30;;;;;;5135924;28;20019;-75
2023/05/10 10:34:32;;;;;;;20.35;10.55;;;15.80;96.30;;;;;;5135362;28;20032;-76
2023/05/10 10:37:03;;;;;;;20.92;11.80;;;15.70;95.80;;;;;;5134577;28;20015;-76
2023/05/10 10:39:29;;;;;;;23.63;12.10;;;15.60;95.70;;;;;;5135623;28;20039;-76
2023/05/10 10:41:55;;;;;;;21.60;12.05;;;15.60;96.20;;;;;;5135543;28;20023;-76
2023/05/10 10:44:33;;;;;;;22.50;11.73;;;15.70;96.50;;;;;;5117414;28;20111;-77
2023/05/10 10:47:28;;;;;;;18.05;10.30;;;15.70;96.10;;;;;;5134372;28;20028;-76
2023/05/10 10:50:03;;;;;;;23.83;12.02;;;15.70;95.20;;;;;;5118221;28;20039;-76
2023/05/10 10:52:43;;;;;;;22.38;10.82;;;15.60;95.60;;;;;;5134376;28;20072;-75
2023/05/10 10:55:14;;;;;;;18.60;10.90;;;15.70;95.80;;;;;;5134217;28;20027;-75
2023/05/10 10:57:40;;;;;;;19.90;10.70;;;15.70;95.80;;;;;;5134313;28;20031;-76
2023/05/10 11:00:27;;;;;;;22.52;11.48;;;15.80;95.80;;;;;;5134117;28;20032;-76
2023/05/10 11:02:54;;;;;;;19.83;11.05;;;15.90;95.70;;;;;;5134182;28;20024;-75
2023/05/10 11:05:42;;;;;;;21.13;11.73;;;15.90;95.80;;;;;;5134780;28;20062;-75
2023/05/10 11:08:17;;;;;;;20.15;11.65;;;15.90;95.90;;;;;;5135314;28;20043;-76
2023/05/10 11:10:59;;;;;;;19.48;11.20;;;16.00;96.10;;;;;;5133926;28;20027;-75
2023/05/10 11:13:48;;;;;;;18.02;9.85;;;16.00;96.10;;;;;;5135023;28;20031;-75
2023/05/10 11:16:25;;;;;;;15.30;9.23;;;16.00;96.00;;;;;;5133867;28;20020;-75
2023/05/10 11:19:04;;;;;;;20.83;10.13;;;16.00;96.00;;;;;;5116999;28;20059;-76
2023/05/10 11:21:31;;;;;;;17.00;9.38;;;16.00;96.00;;;;;;5133734;28;20038;-76
2023/05/10 11:23:58;;;;;;;18.08;9.23;;;16.00;96.00;;;;;;5133609;28;20028;-76
2023/05/10 11:26:37;;;;;;;19.48;9.48;;;16.00;96.00;;;;;;5133578;28;20026;-76
2023/05/10 11:29:04;;;;;;;18.63;10.13;;;16.10;96.10;;;;;;5116829;28;20024;-75
2023/05/10 11:31:30;;;;;;;19.02;10.43;;;16.10;96.20;;;;;;5133584;28;20118;-75
2023/05/10 11:33:58;;;;;;;19.08;10.20;;;16.10;96.20;;;;;;5116445;28;20036;-76
2023/05/10 11:36:25;;;;;;;17.92;9.40;;;16.20;96.10;;;;;;5116463;28;20057;-76
2023/05/10 11:38:51;;;;;;;19.70;10.25;;;16.20;95.60;;;;;;5133457;28;20024;-76
2023/05/10 11:41:21;;;;;;;15.55;8.98;;;16.20;95.60;;;;;;5133491;28;20032;-76
2023/05/10 11:43:49;;;;;;;19.48;9.57;;;16.20;96.20;;;;;;5116768;28;20445;-75
2023/05/10 11:46:16;;;;;;;18.50;9.85;;;16.30;95.80;;;;;;5132599;28;20020;-76
2023/05/10 11:48:42;;;;;;;17.27;10.13;;;16.20;95.60;;;;;;5116503;28;20020;-76
2023/05/10 11:51:09;;;;;;;15.27;9.07;;;16.30;95.60;;;;;;5116343;28;20023;-75
2023/05/10 11:53:35;;;;;;;18.85;9.43;;;16.20;95.50;;;;;;5116477;28;20027;-76
2023/05/10 11:56:09;;;;;;;17.08;9.60;;;16.20;95.40;;;;;;5116106;28;20035;-76
2023/05/10 11:58:36;;;;;;;14.63;8.95;;;16.20;95.50;;;;;;5133244;28;20028;-76
2023/05/10 12:01:03;;;;;;;15.05;9.15;;;16.20;95.70;;;;;;5116246;28;20031;-76
2023/05/10 12:03:30;;;;;;;16.95;9.57;;;16.20;95.30;;;;;;5115962;28;20028;-75
2023/05/10 12:05:57;;;;;;;22.70;10.82;;;16.20;95.40;;;;;;5132851;28;20077;-76
2023/05/10 12:08:25;;;;;;;22.02;10.82;;;16.30;95.60;;;;;;5116028;28;20047;-76
2023/05/10 12:10:51;;;;;;;21.50;11.80;;;16.30;95.80;;;;;;5132850;28;20016;-76
2023/05/10 12:13:18;;;;;;;17.55;10.50;;;16.30;95.90;;;;;;5133077;28;20028;-76
2023/05/10 12:15:44;;;;;;;21.38;10.85;;;16.40;96.00;;;;;;5116033;28;20032;-76
2023/05/10 12:18:14;;;;;;;17.63;9.82;;;16.40;96.00;;;;;;5133914;28;20031;-75
2023/05/10 12:20:40;;;;;;;16.15;9.43;;;16.50;96.30;;;;;;5133972;28;20039;-76
2023/05/10 12:23:09;;;;;;;17.67;10.00;;;16.50;95.40;;;;;;5132830;28;20112;-76
2023/05/10 12:25:37;;;;;;;16.60;9.93;;;16.50;95.40;;;;;;5132820;28;20041;-76
2023/05/10 12:28:05;;;;;;;16.80;9.38;;;16.60;95.30;;;;;;5132867;28;20024;-76
2023/05/10 12:30:33;;;;;;;17.85;8.65;;;16.50;94.70;;;;;;5132880;28;20028;-75
2023/05/10 12:33:11;;;;;;;15.45;9.13;;;16.60;94.90;;;;;;5132748;28;20045;-75
2023/05/10 12:35:51;;;;;;;14.32;7.90;;;16.60;95.20;;;;;;5132872;28;20393;-75
2023/05/10 12:38:30;;;;;;;18.25;9.45;;;16.60;95.00;;;;;;5132841;28;20030;-76
2023/05/10 12:41:07;;;;;;;15.73;9.30;;;16.60;95.20;;;;;;5133707;28;20031;-75
2023/05/10 12:43:34;;;;;;;14.10;8.52;;;16.60;95.20;;;;;;5132593;28;20027;-75
2023/05/10 12:46:17;;;;;;;14.45;8.55;;;16.50;95.50;;;;;;5098908;28;20024;-76